createdAt,value
2019-04-03T00:00:50.605Z,15.57
2019-04-03T00:03:21.370Z,17.73
2019-04-03T00:05:52.565Z,16.40
2019-04-03T00:08:23.298Z,14.97
2019-04-03T00:10:53.684Z,17.00
2019-04-03T00:13:26.911Z,11.60
2019-04-03T00:15:58.316Z,13.23
2019-04-03T00:18:29.098Z,13.53
2019-04-03T00:21:00.951Z,11.20
2019-04-03T00:23:33.044Z,12.40
2019-04-03T00:26:03.422Z,10.67
2019-04-03T00:28:33.881Z,12.03
2019-04-03T00:31:05.744Z,10.73
2019-04-03T00:33:36.142Z,13.77
2019-04-03T00:36:09.276Z,8.93
2019-04-03T00:38:39.682Z,13.83
2019-04-03T00:41:11.877Z,14.80
2019-04-03T00:43:43.726Z,10.97
2019-04-03T00:46:15.899Z,10.27
2019-04-03T00:48:46.580Z,10.07
2019-04-03T00:51:18.314Z,11.03
2019-04-03T00:53:48.742Z,10.80
2019-04-03T00:56:20.123Z,9.53
2019-04-03T00:58:52.284Z,9.40
2019-04-03T01:01:24.727Z,11.27
2019-04-03T01:03:56.814Z,15.47
2019-04-03T01:06:28.995Z,12.03
2019-04-03T01:09:01.822Z,12.63
2019-04-03T01:11:33.665Z,13.37
2019-04-03T01:14:05.967Z,13.67
2019-04-03T01:16:36.898Z,12.67
2019-04-03T01:19:08.804Z,13.93
2019-04-03T01:21:41.222Z,14.63
2019-04-03T01:24:11.722Z,16.20
2019-04-03T01:26:42.723Z,11.77
2019-04-03T01:29:13.238Z,16.07
2019-04-03T01:31:44.723Z,13.33
2019-04-03T01:34:17.213Z,11.53
2019-04-03T01:36:49.667Z,15.03
2019-04-03T01:39:21.485Z,11.53
2019-04-03T01:41:53.432Z,14.23
2019-04-03T01:44:25.756Z,10.63
2019-04-03T01:46:57.693Z,12.50
2019-04-03T01:49:29.142Z,16.97
2019-04-03T01:52:00.899Z,13.70
2019-04-03T01:54:33.747Z,15.37
2019-04-03T01:57:06.342Z,16.07
2019-04-03T01:59:37.550Z,14.73
2019-04-03T02:02:09.070Z,14.03
2019-04-03T02:04:42.992Z,12.97
2019-04-03T02:07:14.852Z,11.60
2019-04-03T02:09:47.276Z,14.30
2019-04-03T02:12:19.870Z,13.53
2019-04-03T02:14:51.821Z,16.33
2019-04-03T02:17:24.196Z,16.60
2019-04-03T02:19:56.593Z,15.03
2019-04-03T02:22:28.963Z,12.93
2019-04-03T02:25:01.873Z,16.10
2019-04-03T02:27:33.887Z,17.97
2019-04-03T02:30:05.243Z,13.13
2019-04-03T02:32:36.370Z,13.93
2019-04-03T02:35:08.437Z,15.53
2019-04-03T02:37:39.363Z,13.87
2019-04-03T02:40:10.977Z,16.23
2019-04-03T02:42:42.487Z,16.83
2019-04-03T02:45:14.383Z,15.53
2019-04-03T02:47:44.849Z,14.53
2019-04-03T02:50:22.001Z,16.87
2019-04-03T02:52:56.875Z,16.50
2019-04-03T02:55:24.988Z,15.30
2019-04-03T02:57:55.256Z,19.77
2019-04-03T03:00:25.981Z,15.50
2019-04-03T03:02:57.064Z,17.03
2019-04-03T03:05:28.850Z,17.90
2019-04-03T03:07:59.685Z,15.97
2019-04-03T03:10:31.810Z,16.60
2019-04-03T03:13:02.765Z,16.27
2019-04-03T03:15:33.091Z,14.93
2019-04-03T03:18:04.018Z,13.83
2019-04-03T03:20:39.004Z,18.77
2019-04-03T03:23:07.712Z,15.27
2019-04-03T03:25:38.453Z,13.60
2019-04-03T03:28:13.243Z,18.53
2019-04-03T03:30:50.791Z,17.37
2019-04-03T03:33:33.145Z,14.93
2019-04-03T03:35:50.038Z,16.17
2019-04-03T03:38:20.295Z,18.07
2019-04-03T03:40:51.227Z,15.30
2019-04-03T03:43:22.324Z,14.07
2019-04-03T03:45:54.083Z,15.73
2019-04-03T03:48:24.649Z,17.43
2019-04-03T03:50:58.529Z,23.70
2019-04-03T03:53:29.421Z,14.70
2019-04-03T03:56:03.910Z,13.83
2019-04-03T03:58:34.515Z,16.10
2019-04-03T04:01:04.721Z,13.63
2019-04-03T04:03:36.060Z,15.30
2019-04-03T04:06:12.424Z,16.17
2019-04-03T04:08:44.916Z,12.17
2019-04-03T04:11:16.152Z,17.33
2019-04-03T04:13:48.511Z,13.53
2019-04-03T04:16:18.887Z,17.87
2019-04-03T04:18:51.005Z,14.13
2019-04-03T04:21:22.465Z,13.47
2019-04-03T04:23:57.236Z,13.70
2019-04-03T04:26:29.884Z,14.30
2019-04-03T04:29:01.578Z,16.97
2019-04-03T04:31:31.935Z,21.67
2019-04-03T04:34:02.639Z,14.53
2019-04-03T04:36:32.896Z,18.13
2019-04-03T04:39:03.641Z,15.33
2019-04-03T04:41:33.957Z,16.27
2019-04-03T04:44:09.489Z,15.27
2019-04-03T04:46:44.218Z,19.13
2019-04-03T04:49:15.784Z,19.90
2019-04-03T04:51:46.036Z,21.03
2019-04-03T04:54:16.935Z,19.33
2019-04-03T04:56:48.801Z,21.63
2019-04-03T04:59:19.841Z,19.37
2019-04-03T05:01:51.053Z,21.27
2019-04-03T05:04:23.315Z,26.37
2019-04-03T05:06:53.894Z,22.13
2019-04-03T05:09:26.434Z,22.33
2019-04-03T05:11:58.809Z,18.10
2019-04-03T05:14:31.405Z,18.13
2019-04-03T05:17:02.059Z,22.50
2019-04-03T05:19:32.643Z,20.03
2019-04-03T05:22:03.759Z,16.07
2019-04-03T05:24:33.943Z,25.23
2019-04-03T05:27:07.443Z,18.00
2019-04-03T05:29:38.519Z,23.20
2019-04-03T05:32:10.450Z,20.90
2019-04-03T05:34:43.666Z,21.97
2019-04-03T05:37:14.193Z,27.17
2019-04-03T05:39:44.180Z,20.87
2019-04-03T05:42:15.376Z,26.37
2019-04-03T05:44:50.061Z,16.83
2019-04-03T05:47:21.214Z,19.47
2019-04-03T05:49:56.214Z,17.03
2019-04-03T05:52:33.047Z,23.67
2019-04-03T05:55:12.696Z,17.87
2019-04-03T05:57:46.099Z,21.07
2019-04-03T06:00:18.782Z,19.90
2019-04-03T06:03:02.793Z,16.37
2019-04-03T06:05:33.420Z,14.87
2019-04-03T06:08:05.067Z,18.37
2019-04-03T06:10:38.872Z,23.73
2019-04-03T06:13:16.707Z,21.47
2019-04-03T06:15:52.783Z,17.20
2019-04-03T06:18:24.019Z,18.60
2019-04-03T06:20:54.563Z,18.40
2019-04-03T06:23:25.287Z,16.87
2019-04-03T06:25:55.340Z,17.73
2019-04-03T06:28:25.752Z,18.43
2019-04-03T06:30:56.761Z,20.47
2019-04-03T06:33:31.492Z,22.70
2019-04-03T06:36:01.373Z,19.33
2019-04-03T06:38:33.865Z,25.10
2019-04-03T06:41:04.176Z,15.80
2019-04-03T06:43:34.225Z,15.37
2019-04-03T06:46:04.728Z,21.13
2019-04-03T06:48:36.819Z,20.37
2019-04-03T06:51:10.370Z,18.77
2019-04-03T06:53:40.330Z,15.77
2019-04-03T06:56:10.504Z,19.73
2019-04-03T06:58:44.619Z,20.07
2019-04-03T07:01:20.176Z,21.50
2019-04-03T07:03:50.587Z,21.63
2019-04-03T07:06:21.015Z,18.20
2019-04-03T07:08:51.482Z,24.40
2019-04-03T07:11:24.213Z,21.90
2019-04-03T07:13:56.164Z,15.73
2019-04-03T07:16:28.683Z,19.83
2019-04-03T07:19:00.231Z,18.90
2019-04-03T07:21:32.419Z,19.10
2019-04-03T07:24:03.294Z,25.50
2019-04-03T07:26:35.742Z,23.87
2019-04-03T07:29:07.264Z,19.37
2019-04-03T07:31:38.077Z,19.77
2019-04-03T07:34:09.145Z,17.53
2019-04-03T07:36:41.183Z,15.80
2019-04-03T07:39:11.933Z,15.43
2019-04-03T07:41:43.149Z,15.07
2019-04-03T07:44:17.130Z,17.90
2019-04-03T07:46:47.570Z,20.90
2019-04-03T07:49:18.642Z,24.50
2019-04-03T07:51:51.938Z,19.80
2019-04-03T07:54:22.765Z,18.57
2019-04-03T07:56:57.329Z,21.80
2019-04-03T07:59:27.829Z,16.73
2019-04-03T08:01:58.000Z,16.30
2019-04-03T08:04:28.217Z,12.23
2019-04-03T08:06:59.119Z,13.23
2019-04-03T08:09:47.386Z,17.57
2019-04-03T08:12:18.997Z,18.17
2019-04-03T08:14:49.339Z,18.40
2019-04-03T08:17:21.170Z,11.23
2019-04-03T08:19:53.740Z,15.70
2019-04-03T08:22:23.914Z,13.33
2019-04-03T08:24:54.353Z,16.17
2019-04-03T08:27:24.977Z,13.57
2019-04-03T08:29:55.954Z,13.10
2019-04-03T08:32:28.636Z,15.60
2019-04-03T08:35:02.423Z,12.13
2019-04-03T08:37:32.324Z,11.00
2019-04-03T08:40:03.691Z,12.57
2019-04-03T08:42:41.900Z,11.03
2019-04-03T08:45:14.772Z,12.53
2019-04-03T08:47:47.949Z,12.30
2019-04-03T08:50:51.131Z,11.47
2019-04-03T08:53:24.598Z,12.13
2019-04-03T08:56:09.264Z,13.67
2019-04-03T08:58:50.419Z,12.97
2019-04-03T09:01:20.718Z,12.07
2019-04-03T09:03:53.223Z,18.43
2019-04-03T09:06:30.350Z,12.27
2019-04-03T09:09:00.465Z,13.43
2019-04-03T09:11:34.087Z,11.37
2019-04-03T09:14:05.954Z,12.07
2019-04-03T09:16:38.135Z,13.97
2019-04-03T09:19:10.834Z,14.80
2019-04-03T09:21:45.357Z,12.33
2019-04-03T09:24:18.434Z,11.03
2019-04-03T09:26:50.727Z,14.03
2019-04-03T09:29:21.178Z,11.90
2019-04-03T09:31:55.969Z,13.23
2019-04-03T09:34:28.926Z,12.00
2019-04-03T09:37:00.456Z,11.47
2019-04-03T09:39:45.819Z,15.07
2019-04-03T09:42:16.641Z,12.50
2019-04-03T09:44:56.235Z,14.00
2019-04-03T09:47:36.998Z,13.00
2019-04-03T09:50:15.531Z,12.20
2019-04-03T09:53:07.609Z,12.20
2019-04-03T09:55:40.574Z,11.37
2019-04-03T09:58:12.113Z,11.70
2019-04-03T10:00:45.787Z,13.13
2019-04-03T10:03:24.010Z,13.70
2019-04-03T10:05:55.384Z,14.10
2019-04-03T10:08:25.980Z,14.47
2019-04-03T10:11:01.929Z,11.47
2019-04-03T10:13:44.123Z,14.37
2019-04-03T10:16:16.826Z,14.20
2019-04-03T10:18:56.935Z,15.93
2019-04-03T10:21:33.863Z,15.60
2019-04-03T10:24:04.753Z,12.20
2019-04-03T10:26:40.712Z,13.00
2019-04-03T10:29:13.064Z,11.67
2019-04-03T10:31:58.448Z,21.00
2019-04-03T10:35:02.367Z,13.50
2019-04-03T10:37:41.357Z,14.53
2019-04-03T10:46:30.290Z,11.47
2019-04-03T10:49:02.101Z,11.30
2019-04-03T10:51:32.907Z,13.13
2019-04-03T10:54:03.614Z,12.03
2019-04-03T10:57:16.404Z,16.30
2019-04-03T11:00:14.598Z,13.83
2019-04-03T11:02:49.325Z,10.77
2019-04-03T11:05:45.063Z,12.47
2019-04-03T11:08:23.679Z,14.77
2019-04-03T11:10:58.133Z,13.33
2019-04-03T11:13:30.215Z,12.13
2019-04-03T11:16:23.032Z,12.60
2019-04-03T11:19:06.983Z,14.37
2019-04-03T11:21:43.223Z,11.07
2019-04-03T11:24:15.550Z,14.27
2019-04-03T11:27:45.023Z,13.77
2019-04-03T11:30:14.020Z,14.07
2019-04-03T11:32:46.460Z,13.77
2019-04-03T11:35:20.673Z,12.77
2019-04-03T11:37:50.659Z,12.63
2019-04-03T11:40:24.828Z,15.73
2019-04-03T11:43:06.036Z,13.07
2019-04-03T11:45:36.355Z,10.83
2019-04-03T11:48:11.992Z,9.10
2019-04-03T11:50:47.232Z,10.97
2019-04-03T11:53:25.922Z,11.23
2019-04-03T11:55:56.349Z,13.30
2019-04-03T11:59:16.898Z,12.07
2019-04-03T12:01:51.121Z,11.20
2019-04-03T12:04:21.891Z,9.13
2019-04-03T12:06:52.840Z,11.80
2019-04-03T12:09:24.138Z,9.97
2019-04-03T12:11:55.661Z,11.10
2019-04-03T12:14:37.405Z,9.23
2019-04-03T12:17:07.844Z,14.07
2019-04-03T12:19:38.982Z,14.83
2019-04-03T12:22:14.282Z,7.20
2019-04-03T12:24:45.395Z,6.97
2019-04-03T12:27:17.444Z,7.83
2019-04-03T12:30:02.219Z,7.60
2019-04-03T12:32:39.297Z,9.93
2019-04-03T12:35:07.283Z,11.13
2019-04-03T12:37:41.305Z,9.17
2019-04-03T12:40:15.947Z,10.07
2019-04-03T12:42:47.003Z,14.80
2019-04-03T12:45:25.505Z,12.23
2019-04-03T12:48:15.403Z,8.63
2019-04-03T12:50:51.684Z,10.17
2019-04-03T12:53:23.416Z,10.50
2019-04-03T12:55:55.766Z,12.50
2019-04-03T12:58:26.908Z,9.93
2019-04-03T13:01:04.677Z,13.77
2019-04-03T13:03:37.032Z,12.43
2019-04-03T13:06:09.777Z,10.70
2019-04-03T13:08:46.286Z,14.27
2019-04-03T13:11:18.581Z,12.07
2019-04-03T13:13:48.602Z,11.53
2019-04-03T13:16:21.477Z,11.47
2019-04-03T13:18:51.036Z,12.13
2019-04-03T13:21:22.950Z,15.00
2019-04-03T13:23:53.023Z,14.37
2019-04-03T13:26:43.888Z,16.30
2019-04-03T13:29:14.539Z,20.43
2019-04-03T13:31:56.201Z,13.13
2019-04-03T13:34:31.084Z,15.40
2019-04-03T13:37:02.126Z,15.13
2019-04-03T13:39:33.582Z,17.10
2019-04-03T13:42:04.238Z,17.63
2019-04-03T13:44:36.014Z,21.87
2019-04-03T13:47:08.197Z,21.93
2019-04-03T13:49:44.255Z,16.63
2019-04-03T13:52:15.731Z,19.73
2019-04-03T13:54:48.409Z,17.93
2019-04-03T13:57:19.430Z,20.47
2019-04-03T13:59:52.510Z,26.17
2019-04-03T14:02:26.267Z,26.07
2019-04-03T14:04:57.932Z,21.87
2019-04-03T14:07:34.353Z,20.00
2019-04-03T14:10:06.546Z,16.67
2019-04-03T14:12:43.090Z,21.47
2019-04-03T14:15:11.168Z,19.70
2019-04-03T14:17:53.460Z,21.07
2019-04-03T14:20:17.799Z,18.37
2019-04-03T14:22:55.401Z,25.37
2019-04-03T14:28:44.653Z,24.50
2019-04-03T14:31:17.006Z,17.60
2019-04-03T14:33:48.579Z,20.47
2019-04-03T14:36:45.748Z,18.97
2019-04-03T14:39:17.568Z,24.23
2019-04-03T14:41:48.098Z,21.37
2019-04-03T14:44:25.583Z,19.00
2019-04-03T14:46:55.815Z,28.23
2019-04-03T14:49:26.506Z,15.87
2019-04-03T14:51:57.413Z,14.10
2019-04-03T14:54:30.316Z,11.53
2019-04-03T14:57:05.698Z,14.57
2019-04-03T14:59:35.323Z,15.20
2019-04-03T15:02:05.961Z,13.97
2019-04-03T15:04:37.674Z,18.73
2019-04-03T15:07:10.681Z,9.73
2019-04-03T15:09:41.405Z,9.30
2019-04-03T15:12:12.945Z,12.03
2019-04-03T15:14:43.935Z,8.43
2019-04-03T15:17:15.141Z,7.43
2019-04-03T15:19:46.211Z,7.23
2019-04-03T15:22:18.349Z,5.57
2019-04-03T15:24:50.291Z,4.00
2019-04-03T15:27:21.609Z,2.17
2019-04-03T15:30:33.822Z,3.50
2019-04-03T15:33:14.882Z,1.40
2019-04-03T15:35:54.465Z,1.97
2019-04-03T15:38:54.741Z,1.77
2019-04-03T15:41:31.075Z,4.10
2019-04-03T15:44:09.659Z,1.97
2019-04-03T15:46:42.072Z,1.63
2019-04-03T15:49:14.209Z,6.23
2019-04-03T15:51:46.596Z,2.47
2019-04-03T15:54:18.487Z,2.80
2019-04-03T16:03:06.550Z,2.90
2019-04-03T16:05:37.446Z,3.07
2019-04-03T16:08:14.042Z,1.73
2019-04-03T16:10:47.782Z,1.43
2019-04-03T16:13:20.752Z,1.57
2019-04-03T16:15:50.366Z,6.93
2019-04-03T16:18:21.911Z,1.30
2019-04-03T16:20:53.444Z,1.00
2019-04-03T16:23:23.985Z,1.57
2019-04-03T16:25:54.451Z,1.40
2019-04-03T16:28:27.751Z,6.17
2019-04-03T16:31:03.683Z,2.47
2019-04-03T16:33:36.947Z,2.07
2019-04-03T16:36:08.122Z,2.00
2019-04-03T16:38:41.447Z,1.60
2019-04-03T16:41:13.079Z,5.67
2019-04-03T16:43:45.607Z,2.33
2019-04-03T16:46:22.084Z,1.77
2019-04-03T16:49:02.214Z,1.80
2019-04-03T16:51:33.738Z,1.53
2019-04-03T16:54:05.743Z,1.17
2019-04-03T16:56:38.600Z,2.13
2019-04-03T16:59:09.757Z,1.57
2019-04-03T17:01:39.895Z,1.27
2019-04-03T17:04:22.971Z,2.03
2019-04-03T17:06:47.697Z,1.33
2019-04-03T17:09:17.725Z,3.43
2019-04-03T17:11:49.362Z,1.03
2019-04-03T17:14:23.673Z,9.07
2019-04-03T17:16:52.919Z,1.43
2019-04-03T17:19:27.030Z,3.80
2019-04-03T17:21:57.712Z,1.13
2019-04-03T17:24:40.242Z,5.40
2019-04-03T17:27:01.282Z,2.80
2019-04-03T17:29:32.542Z,1.37
2019-04-03T17:32:02.598Z,1.93
2019-04-03T17:34:32.976Z,1.73
2019-04-03T17:37:04.636Z,2.43
2019-04-03T17:39:35.766Z,3.17
2019-04-03T17:42:10.722Z,1.67
2019-04-03T17:44:42.865Z,1.47
2019-04-03T17:47:19.266Z,2.90
2019-04-03T17:49:49.430Z,1.80
2019-04-03T17:52:19.894Z,1.30
2019-04-03T17:54:50.171Z,1.50
2019-04-03T17:57:21.208Z,2.07
2019-04-03T17:59:52.678Z,1.60
2019-04-03T18:02:24.571Z,4.40
2019-04-03T18:04:55.022Z,5.23
2019-04-03T18:07:28.221Z,1.23
2019-04-03T18:10:01.562Z,1.80
2019-04-03T18:12:32.237Z,1.97
2019-04-03T18:15:02.714Z,1.10
2019-04-03T18:17:34.345Z,1.83
2019-04-03T18:20:06.895Z,1.70
2019-04-03T18:22:37.552Z,2.50
2019-04-03T18:25:10.934Z,2.07
2019-04-03T18:27:42.828Z,5.33
2019-04-03T18:30:14.307Z,3.30
2019-04-03T18:32:45.921Z,11.73
2019-04-03T18:35:18.851Z,10.67
2019-04-03T18:37:53.123Z,12.53
2019-04-03T18:40:29.788Z,12.23
2019-04-03T18:43:00.351Z,6.20
2019-04-03T18:45:31.993Z,6.17
2019-04-03T18:48:02.207Z,10.03
2019-04-03T18:50:34.866Z,6.93
2019-04-03T18:53:04.592Z,6.47
2019-04-03T18:55:35.430Z,7.77
2019-04-03T18:58:09.548Z,5.83
2019-04-03T19:00:40.943Z,6.93
2019-04-03T19:03:11.330Z,6.40
2019-04-03T19:05:42.812Z,4.70
2019-04-03T19:08:16.091Z,8.20
2019-04-03T19:10:48.561Z,4.07
2019-04-03T19:13:21.267Z,4.27
2019-04-03T19:15:51.421Z,3.43
2019-04-03T19:18:23.597Z,2.87
2019-04-03T19:20:59.999Z,10.53
2019-04-03T19:23:31.324Z,4.37
2019-04-03T19:26:01.647Z,3.67
2019-04-03T19:28:34.333Z,7.50
2019-04-03T19:31:04.940Z,2.87
2019-04-03T19:33:35.843Z,2.90
2019-04-03T19:36:06.049Z,3.90
2019-04-03T19:38:38.554Z,3.23
2019-04-03T19:41:09.930Z,3.60
2019-04-03T19:43:41.399Z,6.33
2019-04-03T19:46:11.694Z,9.00
2019-04-03T19:48:41.794Z,3.57
2019-04-03T19:51:12.130Z,2.60
2019-04-03T19:53:44.331Z,3.67
2019-04-03T19:56:15.048Z,5.50
2019-04-03T19:58:45.803Z,3.67
2019-04-03T20:01:16.777Z,2.50
2019-04-03T20:03:47.814Z,3.20
2019-04-03T20:06:22.533Z,3.53
2019-04-03T20:08:53.216Z,3.43
2019-04-03T20:11:25.446Z,2.53
2019-04-03T20:13:55.645Z,4.03
2019-04-03T20:16:25.830Z,2.93
2019-04-03T20:18:56.566Z,1.87
2019-04-03T20:21:29.793Z,2.97
2019-04-03T20:24:00.034Z,2.67
2019-04-03T20:26:33.266Z,3.03
2019-04-03T20:29:03.847Z,5.27
2019-04-03T20:31:35.756Z,5.23
2019-04-03T20:34:06.337Z,2.53
2019-04-03T20:36:36.433Z,2.33
2019-04-03T20:39:09.801Z,3.50
2019-04-03T20:41:40.011Z,4.73
2019-04-03T20:44:10.451Z,2.37
2019-04-03T20:46:40.835Z,2.20
2019-04-03T20:49:10.939Z,2.80
2019-04-03T20:51:48.601Z,1.80
2019-04-03T20:54:26.448Z,3.17
2019-04-03T20:57:01.957Z,2.97
2019-04-03T20:59:31.923Z,4.33
2019-04-03T21:02:02.571Z,3.80
2019-04-03T21:04:33.288Z,2.43
2019-04-03T21:07:12.383Z,3.70
2019-04-03T21:09:52.427Z,2.80
2019-04-03T21:12:24.887Z,2.10
2019-04-03T21:15:07.614Z,1.70
2019-04-03T21:17:29.565Z,1.70
2019-04-03T21:20:00.319Z,2.33
2019-04-03T21:22:30.847Z,1.40
2019-04-03T21:25:00.886Z,1.97
2019-04-03T21:27:31.881Z,2.03
2019-04-03T21:30:02.004Z,1.40
2019-04-03T21:32:32.393Z,2.07
2019-04-03T21:35:04.011Z,2.03
2019-04-03T21:37:34.810Z,1.57
2019-04-03T21:40:05.992Z,3.47
2019-04-03T21:42:36.672Z,2.30
2019-04-03T21:45:08.034Z,2.70
2019-04-03T21:47:38.327Z,1.70
2019-04-03T21:50:09.690Z,1.80
2019-04-03T21:52:40.255Z,2.70
2019-04-03T21:55:10.374Z,4.87
2019-04-03T21:57:40.508Z,1.63
2019-04-03T22:00:13.256Z,3.40
2019-04-03T22:02:45.131Z,2.77
2019-04-03T22:05:18.172Z,2.10
2019-04-03T22:07:48.965Z,2.23
2019-04-03T22:10:19.293Z,1.60
2019-04-03T22:12:49.947Z,1.83
2019-04-03T22:15:20.444Z,3.30
2019-04-03T22:17:52.431Z,2.63
2019-04-03T22:20:22.175Z,3.83
2019-04-03T22:22:52.240Z,5.03
2019-04-03T22:25:22.690Z,1.80
2019-04-03T22:27:53.100Z,2.90
2019-04-03T22:30:25.210Z,3.10
2019-04-03T22:32:56.411Z,1.93
2019-04-03T22:35:27.966Z,5.30
2019-04-03T22:38:00.542Z,3.53
2019-04-03T22:40:30.580Z,1.90
2019-04-03T22:43:04.064Z,2.37
2019-04-03T22:45:35.335Z,4.70
2019-04-03T22:48:06.681Z,1.83
2019-04-03T22:50:41.791Z,2.70
2019-04-03T22:53:11.867Z,2.10
2019-04-03T22:55:44.595Z,2.50
2019-04-03T22:58:15.406Z,1.60
2019-04-03T23:00:45.708Z,1.87
2019-04-03T23:03:15.984Z,2.67
2019-04-03T23:05:48.038Z,2.47
2019-04-03T23:08:18.467Z,2.00
2019-04-03T23:10:48.489Z,3.80
2019-04-03T23:13:18.756Z,2.03
2019-04-03T23:15:49.137Z,2.00
2019-04-03T23:18:19.460Z,2.10
2019-04-03T23:20:52.609Z,2.60
2019-04-03T23:23:21.709Z,2.27
2019-04-03T23:25:51.720Z,3.53
2019-04-03T23:28:22.018Z,2.40
2019-04-03T23:30:52.326Z,2.40
2019-04-03T23:33:22.397Z,2.30
2019-04-03T23:35:57.512Z,4.37
2019-04-03T23:38:28.258Z,2.43
2019-04-03T23:40:58.949Z,1.70
2019-04-03T23:43:29.559Z,2.53
2019-04-03T23:46:00.904Z,1.73
2019-04-03T23:48:31.015Z,3.10
2019-04-03T23:51:01.681Z,2.37
2019-04-03T23:53:32.582Z,2.07
2019-04-03T23:56:03.156Z,1.97
2019-04-03T23:58:33.264Z,1.80
